sensor_id;sensor_type;location;lat;lon;timestamp;pressure;altitude;pressure_sealevel;temperature;humidity
27705;BME280;15109;50.992;6.918;2022-08-01T00:00:12;100990.94;;;21.53;100.00
27705;BME280;15109;50.992;6.918;2022-08-01T00:03:33;100993.63;;;21.48;100.00
27705;BME280;15109;50.992;6.918;2022-08-01T00:06:54;100987.34;;;21.41;100.00
27705;BME280;15109;50.992;6.918;2022-08-01T00:10:16;100995.38;;;21.37;100.00
27705;BME280;15109;50.992;6.918;2022-08-01T00:13:37;100987.44;;;21.29;100.00
27705;BME280;15109;50.992;6.918;2022-08-01T00:16:59;100986.59;;;21.28;100.00
27705;BME280;15109;50.992;6.918;2022-08-01T00:20:20;100988.63;;;21.33;100.00
27705;BME280;15109;50.992;6.918;2022-08-01T00:23:41;100983.66;;;21.35;100.00
27705;BME280;15109;50.992;6.918;2022-08-01T00:27:02;100985.31;;;21.36;100.00
27705;BME280;15109;50.992;6.918;2022-08-01T00:30:23;100979.53;;;21.38;100.00
27705;BME280;15109;50.992;6.918;2022-08-01T00:33:44;100988.09;;;21.36;100.00
27705;BME280;15109;50.992;6.918;2022-08-01T00:37:05;100984.84;;;21.39;100.00
27705;BME280;15109;50.992;6.918;2022-08-01T00:40:26;100983.38;;;21.37;100.00
27705;BME280;15109;50.992;6.918;2022-08-01T00:43:47;100987.34;;;21.41;100.00
27705;BME280;15109;50.992;6.918;2022-08-01T00:47:08;100986.78;;;21.39;100.00
27705;BME280;15109;50.992;6.918;2022-08-01T00:50:29;100989.47;;;21.34;100.00
27705;BME280;15109;50.992;6.918;2022-08-01T00:53:51;100999.00;;;21.38;100.00
27705;BME280;15109;50.992;6.918;2022-08-01T00:57:12;100991.50;;;21.38;100.00
27705;BME280;15109;50.992;6.918;2022-08-01T01:00:35;100991.50;;;21.38;100.00
27705;BME280;15109;50.992;6.918;2022-08-01T01:03:56;100990.41;;;21.39;100.00
27705;BME280;15109;50.992;6.918;2022-08-01T01:07:29;100996.31;;;21.43;100.00
27705;BME280;15109;50.992;6.918;2022-08-01T01:11:03;100989.69;;;21.32;100.00
27705;BME280;15109;50.992;6.918;2022-08-01T01:18:35;100996.53;;;21.24;100.00
27705;BME280;15109;50.992;6.918;2022-08-01T01:29:42;100992.03;;;21.23;100.00
27705;BME280;15109;50.992;6.918;2022-08-01T01:33:05;100993.66;;;21.19;100.00
27705;BME280;15109;50.992;6.918;2022-08-01T01:36:28;100998.72;;;21.22;100.00
27705;BME280;15109;50.992;6.918;2022-08-01T01:39:51;100997.03;;;21.21;100.00
27705;BME280;15109;50.992;6.918;2022-08-01T01:43:14;101000.06;;;21.20;100.00
27705;BME280;15109;50.992;6.918;2022-08-01T01:46:36;101001.66;;;21.16;100.00
27705;BME280;15109;50.992;6.918;2022-08-01T01:49:59;100999.72;;;21.16;100.00
27705;BME280;15109;50.992;6.918;2022-08-01T01:53:21;100993.81;;;21.13;100.00
27705;BME280;15109;50.992;6.918;2022-08-01T01:56:44;100997.44;;;21.13;100.00
27705;BME280;15109;50.992;6.918;2022-08-01T02:00:12;100998.88;;;21.16;100.00
27705;BME280;15109;50.992;6.918;2022-08-01T02:03:35;101002.00;;;21.19;100.00
27705;BME280;15109;50.992;6.918;2022-08-01T02:06:57;101004.78;;;21.19;100.00
27705;BME280;15109;50.992;6.918;2022-08-01T02:10:19;100991.88;;;21.13;100.00
27705;BME280;15109;50.992;6.918;2022-08-01T02:13:41;100995.50;;;21.14;100.00
27705;BME280;15109;50.992;6.918;2022-08-01T02:17:03;100995.00;;;21.17;100.00
27705;BME280;15109;50.992;6.918;2022-08-01T02:20:27;100992.47;;;21.15;100.00
27705;BME280;15109;50.992;6.918;2022-08-01T02:23:50;100993.06;;;21.17;100.00
27705;BME280;15109;50.992;6.918;2022-08-01T02:27:17;100997.50;;;21.18;100.00
27705;BME280;15109;50.992;6.918;2022-08-01T02:30:45;100994.72;;;21.18;100.00
27705;BME280;15109;50.992;6.918;2022-08-01T02:34:09;100987.75;;;21.16;100.00
27705;BME280;15109;50.992;6.918;2022-08-01T02:37:34;100990.75;;;21.14;100.00
27705;BME280;15109;50.992;6.918;2022-08-01T02:41:00;100986.31;;;21.13;100.00
27705;BME280;15109;50.992;6.918;2022-08-01T02:44:28;100983.53;;;21.13;100.00
27705;BME280;15109;50.992;6.918;2022-08-01T02:47:51;100981.84;;;21.12;100.00
27705;BME280;15109;50.992;6.918;2022-08-01T02:51:15;100983.75;;;21.12;100.00
27705;BME280;15109;50.992;6.918;2022-08-01T02:54:38;100985.09;;;21.09;100.00
27705;BME280;15109;50.992;6.918;2022-08-01T02:58:01;100982.22;;;21.04;100.00
27705;BME280;15109;50.992;6.918;2022-08-01T03:01:22;100982.22;;;21.04;100.00
27705;BME280;15109;50.992;6.918;2022-08-01T03:04:44;100979.69;;;21.03;100.00
27705;BME280;15109;50.992;6.918;2022-08-01T03:08:08;100987.16;;;21.02;100.00
27705;BME280;15109;50.992;6.918;2022-08-01T03:11:31;100984.72;;;21.06;100.00
27705;BME280;15109;50.992;6.918;2022-08-01T03:14:54;100992.72;;;21.02;100.00
27705;BME280;15109;50.992;6.918;2022-08-01T03:18:17;100991.03;;;21.01;100.00
27705;BME280;15109;50.992;6.918;2022-08-01T03:21:40;100988.25;;;21.01;100.00
27705;BME280;15109;50.992;6.918;2022-08-01T03:25:02;100990.22;;;21.01;100.00
27705;BME280;15109;50.992;6.918;2022-08-01T03:28:25;100991.31;;;21.00;100.00
27705;BME280;15109;50.992;6.918;2022-08-01T03:31:48;100995.41;;;20.97;100.00
27705;BME280;15109;50.992;6.918;2022-08-01T03:35:09;100999.66;;;21.00;100.00
27705;BME280;15109;50.992;6.918;2022-08-01T03:38:32;100996.88;;;21.00;100.00
27705;BME280;15109;50.992;6.918;2022-08-01T03:42:00;100995.78;;;21.01;100.00
27705;BME280;15109;50.992;6.918;2022-08-01T03:45:25;101000.50;;;21.00;100.00
27705;BME280;15109;50.992;6.918;2022-08-01T03:48:48;100997.72;;;21.00;100.00
27705;BME280;15109;50.992;6.918;2022-08-01T03:52:12;101005.22;;;21.00;100.00
27705;BME280;15109;50.992;6.918;2022-08-01T03:55:36;101008.00;;;21.00;100.00
27705;BME280;15109;50.992;6.918;2022-08-01T03:58:59;101004.34;;;20.99;100.00
27705;BME280;15109;50.992;6.918;2022-08-01T04:02:22;101004.94;;;21.01;100.00
27705;BME280;15109;50.992;6.918;2022-08-01T04:05:43;101008.00;;;21.00;100.00
27705;BME280;15109;50.992;6.918;2022-08-01T04:09:07;100997.72;;;21.00;100.00
27705;BME280;15109;50.992;6.918;2022-08-01T04:12:28;101000.16;;;20.97;100.00
27705;BME280;15109;50.992;6.918;2022-08-01T04:15:49;101000.03;;;20.92;100.00
27705;BME280;15109;50.992;6.918;2022-08-01T04:19:10;100998.94;;;20.93;100.00
27705;BME280;15109;50.992;6.918;2022-08-01T04:22:31;100996.16;;;20.93;100.00
27705;BME280;15109;50.992;6.918;2022-08-01T04:25:52;101004.50;;;20.93;100.00
27705;BME280;15109;50.992;6.918;2022-08-01T04:29:16;101002.56;;;20.93;100.00
27705;BME280;15109;50.992;6.918;2022-08-01T04:32:39;101005.84;;;20.90;100.00
27705;BME280;15109;50.992;6.918;2022-08-01T04:36:03;101012.84;;;20.93;100.00
27705;BME280;15109;50.992;6.918;2022-08-01T04:39:28;101018.38;;;20.93;100.00
27705;BME280;15109;50.992;6.918;2022-08-01T04:42:51;101019.75;;;20.90;100.00
27705;BME280;15109;50.992;6.918;2022-08-01T04:46:13;101022.03;;;20.93;100.00
27705;BME280;15109;50.992;6.918;2022-08-01T04:49:35;101030.63;;;20.92;100.00
27705;BME280;15109;50.992;6.918;2022-08-01T04:52:56;101032.28;;;20.93;100.00
27705;BME280;15109;50.992;6.918;2022-08-01T04:56:19;101044.38;;;20.98;100.00
27705;BME280;15109;50.992;6.918;2022-08-01T04:59:43;101039.31;;;20.95;100.00
27705;BME280;15109;50.992;6.918;2022-08-01T05:03:04;101038.69;;;20.93;100.00
27705;BME280;15109;50.992;6.918;2022-08-01T05:06:25;101042.94;;;20.96;100.00
27705;BME280;15109;50.992;6.918;2022-08-01T05:09:46;101038.97;;;20.92;100.00
27705;BME280;15109;50.992;6.918;2022-08-01T05:13:08;101041.00;;;20.96;100.00
27705;BME280;15109;50.992;6.918;2022-08-01T05:16:29;101047.66;;;20.95;100.00
27705;BME280;15109;50.992;6.918;2022-08-01T05:19:50;101038.97;;;20.92;100.00
27705;BME280;15109;50.992;6.918;2022-08-01T05:23:12;101041.47;;;20.93;100.00
27705;BME280;15109;50.992;6.918;2022-08-01T05:26:33;101044.63;;;20.97;100.00
27705;BME280;15109;50.992;6.918;2022-08-01T05:29:54;101045.72;;;20.96;100.00
27705;BME280;15109;50.992;6.918;2022-08-01T05:33:15;101049.94;;;20.98;100.00
27705;BME280;15109;50.992;6.918;2022-08-01T05:36:36;101053.22;;;20.95;100.00
27705;BME280;15109;50.992;6.918;2022-08-01T05:39:58;101051.28;;;20.96;100.00
27705;BME280;15109;50.992;6.918;2022-08-01T05:43:19;101053.22;;;20.95;100.00
27705;BME280;15109;50.992;6.918;2022-08-01T05:46:40;101058.53;;;20.97;100.00
27705;BME280;15109;50.992;6.918;2022-08-01T05:50:01;101055.88;;;20.90;100.00
27705;BME280;15109;50.992;6.918;2022-08-01T05:53:23;101062.63;;;20.94;100.00
27705;BME280;15109;50.992;6.918;2022-08-01T05:56:44;101067.63;;;20.92;100.00
27705;BME280;15109;50.992;6.918;2022-08-01T06:00:05;101061.31;;;20.97;100.00
27705;BME280;15109;50.992;6.918;2022-08-01T06:03:32;101055.84;;;21.02;100.00
27705;BME280;15109;50.992;6.918;2022-08-01T06:06:54;101054.00;;;21.07;100.00
27705;BME280;15109;50.992;6.918;2022-08-01T06:10:15;101062.97;;;21.09;100.00
27705;BME280;15109;50.992;6.918;2022-08-01T06:13:36;101051.38;;;21.12;100.00
27705;BME280;15109;50.992;6.918;2022-08-01T06:16:57;101055.44;;;21.21;100.00
27705;BME280;15109;50.992;6.918;2022-08-01T06:20:19;101056.97;;;21.29;100.00
27705;BME280;15109;50.992;6.918;2022-08-01T06:23:40;101061.72;;;21.45;100.00
27705;BME280;15109;50.992;6.918;2022-08-01T06:27:03;101060.97;;;21.50;100.00
27705;BME280;15109;50.992;6.918;2022-08-01T06:30:24;101061.25;;;21.48;100.00
27705;BME280;15109;50.992;6.918;2022-08-01T06:33:45;101058.47;;;21.48;100.00
27705;BME280;15109;50.992;6.918;2022-08-01T06:37:06;101046.97;;;21.45;100.00
27705;BME280;15109;50.992;6.918;2022-08-01T06:40:27;101064.81;;;21.60;100.00
27705;BME280;15109;50.992;6.918;2022-08-01T06:43:48;101053.91;;;21.59;100.00
27705;BME280;15109;50.992;6.918;2022-08-01T06:47:09;101060.22;;;21.54;100.00
27705;BME280;15109;50.992;6.918;2022-08-01T06:50:30;101062.59;;;21.62;100.00
27705;BME280;15109;50.992;6.918;2022-08-01T06:53:52;101057.38;;;21.66;100.00
27705;BME280;15109;50.992;6.918;2022-08-01T06:57:14;101063.13;;;21.76;100.00
27705;BME280;15109;50.992;6.918;2022-08-01T07:00:35;101075.72;;;21.79;100.00
27705;BME280;15109;50.992;6.918;2022-08-01T07:03:56;101069.72;;;21.70;100.00
27705;BME280;15109;50.992;6.918;2022-08-01T07:07:17;101065.13;;;21.47;100.00
27705;BME280;15109;50.992;6.918;2022-08-01T07:10:38;101056.16;;;21.45;100.00
27705;BME280;15109;50.992;6.918;2022-08-01T07:13:59;101063.84;;;21.55;100.00
27705;BME280;15109;50.992;6.918;2022-08-01T07:17:21;101063.72;;;21.61;100.00
27705;BME280;15109;50.992;6.918;2022-08-01T07:20:42;101064.97;;;21.70;100.00
27705;BME280;15109;50.992;6.918;2022-08-01T07:24:09;101055.94;;;21.80;100.00
27705;BME280;15109;50.992;6.918;2022-08-01T07:27:30;101057.97;;;21.85;100.00
27705;BME280;15109;50.992;6.918;2022-08-01T07:30:51;101062.78;;;21.89;100.00
27705;BME280;15109;50.992;6.918;2022-08-01T07:34:12;101065.56;;;21.89;100.00
27705;BME280;15109;50.992;6.918;2022-08-01T07:37:33;101072.56;;;21.92;100.00
27705;BME280;15109;50.992;6.918;2022-08-01T07:40:55;101077.06;;;21.93;100.00
27705;BME280;15109;50.992;6.918;2022-08-01T07:44:16;101072.19;;;22.00;100.00
27705;BME280;15109;50.992;6.918;2022-08-01T07:47:37;101090.56;;;22.01;100.00
27705;BME280;15109;50.992;6.918;2022-08-01T07:50:58;101082.22;;;22.01;100.00
27705;BME280;15109;50.992;6.918;2022-08-01T07:54:19;101083.34;;;22.00;100.00
27705;BME280;15109;50.992;6.918;2022-08-01T07:57:40;101081.53;;;22.10;100.00
27705;BME280;15109;50.992;6.918;2022-08-01T08:01:02;101077.47;;;22.18;100.00
27705;BME280;15109;50.992;6.918;2022-08-01T08:04:23;101080.28;;;22.35;100.00
27705;BME280;15109;50.992;6.918;2022-08-01T08:07:44;101080.53;;;22.33;100.00
27705;BME280;15109;50.992;6.918;2022-08-01T08:11:05;101082.34;;;22.44;100.00
27705;BME280;15109;50.992;6.918;2022-08-01T08:14:26;101080.50;;;22.50;100.00
27705;BME280;15109;50.992;6.918;2022-08-01T08:17:47;101090.09;;;22.59;100.00
27705;BME280;15109;50.992;6.918;2022-08-01T08:21:08;101078.84;;;22.71;100.00
27705;BME280;15109;50.992;6.918;2022-08-01T08:24:29;101086.28;;;22.82;100.00
27705;BME280;15109;50.992;6.918;2022-08-01T08:27:51;101083.41;;;22.98;100.00
27705;BME280;15109;50.992;6.918;2022-08-01T08:31:13;101089.56;;;23.00;100.00
27705;BME280;15109;50.992;6.918;2022-08-01T08:34:34;101081.78;;;23.02;100.00
27705;BME280;15109;50.992;6.918;2022-08-01T08:37:55;101088.91;;;23.15;100.00
27705;BME280;15109;50.992;6.918;2022-08-01T08:41:16;101087.94;;;23.26;100.00
27705;BME280;15109;50.992;6.918;2022-08-01T08:44:40;101099.09;;;23.26;100.00
27705;BME280;15109;50.992;6.918;2022-08-01T08:48:01;101101.13;;;23.09;100.00
27705;BME280;15109;50.992;6.918;2022-08-01T08:51:25;101098.38;;;22.92;100.00
27705;BME280;15109;50.992;6.918;2022-08-01T08:54:48;101094.28;;;22.78;100.00
27705;BME280;15109;50.992;6.918;2022-08-01T08:58:14;101111.56;;;22.58;100.00
27705;BME280;15109;50.992;6.918;2022-08-01T09:01:35;101097.69;;;22.63;100.00
27705;BME280;15109;50.992;6.918;2022-08-01T09:04:57;101098.13;;;22.72;100.00
27705;BME280;15109;50.992;6.918;2022-08-01T09:08:18;101110.38;;;22.71;100.00
27705;BME280;15109;50.992;6.918;2022-08-01T09:11:39;101112.34;;;22.92;100.00
27705;BME280;15109;50.992;6.918;2022-08-01T09:15:00;101114.50;;;23.07;100.00
27705;BME280;15109;50.992;6.918;2022-08-01T09:18:40;101121.03;;;23.18;100.00
27705;BME280;15109;50.992;6.918;2022-08-01T09:22:03;101113.03;;;23.26;100.00
27705;BME280;15109;50.992;6.918;2022-08-01T09:25:24;101122.44;;;23.42;100.00
27705;BME280;15109;50.992;6.918;2022-08-01T09:28:47;101127.00;;;23.48;100.00
27705;BME280;15109;50.992;6.918;2022-08-01T09:32:08;101121.41;;;23.48;100.00
27705;BME280;15109;50.992;6.918;2022-08-01T09:35:34;101111.41;;;23.30;100.00
27705;BME280;15109;50.992;6.918;2022-08-01T09:39:12;101117.66;;;23.37;100.00
27705;BME280;15109;50.992;6.918;2022-08-01T09:42:34;101128.81;;;23.59;100.00
27705;BME280;15109;50.992;6.918;2022-08-01T09:45:55;101123.97;;;23.76;100.00
27705;BME280;15109;50.992;6.918;2022-08-01T09:49:30;101121.75;;;23.78;100.00
27705;BME280;15109;50.992;6.918;2022-08-01T09:52:53;101126.84;;;23.86;100.00
27705;BME280;15109;50.992;6.918;2022-08-01T09:56:15;101122.25;;;24.02;100.00
27705;BME280;15109;50.992;6.918;2022-08-01T09:59:37;101124.47;;;24.00;100.00
27705;BME280;15109;50.992;6.918;2022-08-01T10:03:22;101125.13;;;24.12;100.00
27705;BME280;15109;50.992;6.918;2022-08-01T10:06:45;101131.50;;;24.08;100.00
27705;BME280;15109;50.992;6.918;2022-08-01T10:10:12;101125.19;;;24.17;100.00
27705;BME280;15109;50.992;6.918;2022-08-01T10:13:34;101131.13;;;23.94;100.00
27705;BME280;15109;50.992;6.918;2022-08-01T10:16:59;101125.41;;;24.11;100.00
27705;BME280;15109;50.992;6.918;2022-08-01T10:20:23;101121.75;;;24.10;100.00
27705;BME280;15109;50.992;6.918;2022-08-01T10:23:45;101123.25;;;24.18;100.00
27705;BME280;15109;50.992;6.918;2022-08-01T10:27:08;101113.56;;;24.30;100.00
27705;BME280;15109;50.992;6.918;2022-08-01T10:30:29;101111.81;;;24.19;100.00
27705;BME280;15109;50.992;6.918;2022-08-01T10:33:51;101117.41;;;24.19;100.00
27705;BME280;15109;50.992;6.918;2022-08-01T10:37:12;101118.25;;;24.20;100.00
27705;BME280;15109;50.992;6.918;2022-08-01T10:40:35;101125.25;;;24.22;100.00
27705;BME280;15109;50.992;6.918;2022-08-01T10:43:57;101115.03;;;24.06;100.00
27705;BME280;15109;50.992;6.918;2022-08-01T10:47:23;101117.97;;;24.21;100.00
27705;BME280;15109;50.992;6.918;2022-08-01T10:50:51;101116.06;;;24.27;100.00
27705;BME280;15109;50.992;6.918;2022-08-01T10:54:13;101106.91;;;24.36;100.00
27705;BME280;15109;50.992;6.918;2022-08-01T10:57:47;101101.84;;;24.33;100.00
27705;BME280;15109;50.992;6.918;2022-08-01T11:04:48;101106.72;;;24.48;100.00
27705;BME280;15109;50.992;6.918;2022-08-01T11:08:22;101102.50;;;24.46;100.00
27705;BME280;15109;50.992;6.918;2022-08-01T11:15:19;101101.59;;;24.82;100.00
27705;BME280;15109;50.992;6.918;2022-08-01T11:18:51;101092.44;;;24.92;100.00
27705;BME280;15109;50.992;6.918;2022-08-01T11:22:12;101085.47;;;24.89;100.00
27705;BME280;15109;50.992;6.918;2022-08-01T11:29:12;101088.16;;;24.79;100.00
27705;BME280;15109;50.992;6.918;2022-08-01T11:32:45;101087.03;;;24.75;100.00
27705;BME280;15109;50.992;6.918;2022-08-01T11:39:30;101080.63;;;24.79;100.00
27705;BME280;15109;50.992;6.918;2022-08-01T11:50:36;101070.66;;;24.99;100.00
27705;BME280;15109;50.992;6.918;2022-08-01T11:53:57;101069.56;;;25.05;100.00
27705;BME280;15109;50.992;6.918;2022-08-01T11:57:22;101066.78;;;25.05;100.00
27705;BME280;15109;50.992;6.918;2022-08-01T12:00:53;101075.19;;;25.10;100.00
27705;BME280;15109;50.992;6.918;2022-08-01T12:04:14;101067.31;;;25.07;100.00
27705;BME280;15109;50.992;6.918;2022-08-01T12:07:36;101075.72;;;25.07;100.00
27705;BME280;15109;50.992;6.918;2022-08-01T12:10:57;101073.16;;;24.95;100.00
27705;BME280;15109;50.992;6.918;2022-08-01T12:14:19;101080.75;;;25.05;100.00
27705;BME280;15109;50.992;6.918;2022-08-01T12:17:46;101079.63;;;25.01;100.00
27705;BME280;15109;50.992;6.918;2022-08-01T12:21:07;101086.59;;;24.98;100.00
27705;BME280;15109;50.992;6.918;2022-08-01T12:24:29;101080.72;;;24.95;100.00
27705;BME280;15109;50.992;6.918;2022-08-01T12:27:50;101084.97;;;25.02;100.00
27705;BME280;15109;50.992;6.918;2022-08-01T12:31:11;101091.41;;;25.08;100.00
27705;BME280;15109;50.992;6.918;2022-08-01T12:34:32;101092.75;;;24.95;100.00
27705;BME280;15109;50.992;6.918;2022-08-01T12:37:57;101098.91;;;24.97;100.00
27705;BME280;15109;50.992;6.918;2022-08-01T12:41:18;101092.47;;;24.97;100.00
27705;BME280;15109;50.992;6.918;2022-08-01T12:44:42;101091.63;;;24.96;100.00
27705;BME280;15109;50.992;6.918;2022-08-01T12:48:08;101084.44;;;25.10;100.00
27705;BME280;15109;50.992;6.918;2022-08-01T12:51:29;101082.16;;;25.07;100.00
27705;BME280;15109;50.992;6.918;2022-08-01T12:55:10;101073.28;;;25.25;100.00
27705;BME280;15109;50.992;6.918;2022-08-01T12:58:34;101074.97;;;25.26;100.00
27705;BME280;15109;50.992;6.918;2022-08-01T13:01:56;101072.44;;;25.25;100.00
27705;BME280;15109;50.992;6.918;2022-08-01T13:05:17;101070.50;;;25.30;100.00
27705;BME280;15109;50.992;6.918;2022-08-01T13:08:38;101067.44;;;25.47;100.00
27705;BME280;15109;50.992;6.918;2022-08-01T13:12:08;101075.34;;;25.60;100.00
27705;BME280;15109;50.992;6.918;2022-08-01T13:15:31;101073.41;;;25.66;100.00
27705;BME280;15109;50.992;6.918;2022-08-01T13:18:54;101073.13;;;25.62;100.00
27705;BME280;15109;50.992;6.918;2022-08-01T13:22:17;101080.13;;;25.70;100.00
27705;BME280;15109;50.992;6.918;2022-08-01T13:29:14;101072.03;;;25.84;97.01
27705;BME280;15109;50.992;6.918;2022-08-01T13:32:36;101068.91;;;25.80;92.25
27705;BME280;15109;50.992;6.918;2022-08-01T13:35:58;101071.44;;;25.87;93.18
27705;BME280;15109;50.992;6.918;2022-08-01T13:39:19;101073.16;;;25.93;95.10
27705;BME280;15109;50.992;6.918;2022-08-01T13:42:59;101072.28;;;26.02;94.70
27705;BME280;15109;50.992;6.918;2022-08-01T13:46:20;101072.00;;;26.04;95.43
27705;BME280;15109;50.992;6.918;2022-08-01T13:49:41;101072.59;;;26.01;92.47
27705;BME280;15109;50.992;6.918;2022-08-01T13:53:02;101066.97;;;26.01;93.58
27705;BME280;15109;50.992;6.918;2022-08-01T13:56:24;101070.34;;;25.93;94.23
27705;BME280;15109;50.992;6.918;2022-08-01T13:59:45;101066.97;;;25.86;91.59
27705;BME280;15109;50.992;6.918;2022-08-01T14:03:06;101068.09;;;25.74;92.61
27705;BME280;15109;50.992;6.918;2022-08-01T14:06:28;101079.84;;;25.71;91.96
27705;BME280;15109;50.992;6.918;2022-08-01T14:09:49;101069.19;;;25.68;91.61
27705;BME280;15109;50.992;6.918;2022-08-01T14:13:10;101082.34;;;25.68;92.76
27705;BME280;15109;50.992;6.918;2022-08-01T14:16:31;101071.97;;;25.63;89.19
27705;BME280;15109;50.992;6.918;2022-08-01T14:19:52;101070.59;;;25.66;89.58
27705;BME280;15109;50.992;6.918;2022-08-01T14:23:13;101066.69;;;25.77;92.78
27705;BME280;15109;50.992;6.918;2022-08-01T14:26:35;101055.75;;;25.91;91.80
27705;BME280;15109;50.992;6.918;2022-08-01T14:29:56;101064.72;;;25.88;91.33
27705;BME280;15109;50.992;6.918;2022-08-01T14:33:17;101062.50;;;26.00;92.09
27705;BME280;15109;50.992;6.918;2022-08-01T14:36:38;101051.56;;;26.18;96.79
27705;BME280;15109;50.992;6.918;2022-08-01T14:40:00;101061.91;;;26.18;98.41
27705;BME280;15109;50.992;6.918;2022-08-01T14:43:28;101069.47;;;26.38;99.86
27705;BME280;15109;50.992;6.918;2022-08-01T14:46:52;101055.78;;;26.21;94.96
27705;BME280;15109;50.992;6.918;2022-08-01T14:50:15;101063.59;;;26.09;96.75
27705;BME280;15109;50.992;6.918;2022-08-01T14:53:36;101063.03;;;26.02;95.21
27705;BME280;15109;50.992;6.918;2022-08-01T14:56:58;101069.47;;;26.07;96.48
27705;BME280;15109;50.992;6.918;2022-08-01T15:00:19;101071.19;;;26.18;96.38
27705;BME280;15109;50.992;6.918;2022-08-01T15:03:40;101070.63;;;26.22;92.58
27705;BME280;15109;50.992;6.918;2022-08-01T15:07:02;101067.53;;;26.38;96.69
27705;BME280;15109;50.992;6.918;2022-08-01T15:10:23;101068.63;;;26.42;94.36
27705;BME280;15109;50.992;6.918;2022-08-01T15:13:44;101066.94;;;26.46;94.90
27705;BME280;15109;50.992;6.918;2022-08-01T15:17:05;101061.34;;;26.46;92.21
27705;BME280;15109;50.992;6.918;2022-08-01T15:20:28;101072.28;;;26.43;89.93
27705;BME280;15109;50.992;6.918;2022-08-01T15:23:49;101069.72;;;26.56;93.84
27705;BME280;15109;50.992;6.918;2022-08-01T15:27:10;101080.44;;;26.39;93.63
27705;BME280;15109;50.992;6.918;2022-08-01T15:30:32;101066.97;;;26.16;96.33
27705;BME280;15109;50.992;6.918;2022-08-01T15:33:53;101080.69;;;25.82;97.94
27705;BME280;15109;50.992;6.918;2022-08-01T15:37:15;101090.19;;;25.76;100.00
27705;BME280;15109;50.992;6.918;2022-08-01T15:40:36;101090.44;;;25.54;100.00
27705;BME280;15109;50.992;6.918;2022-08-01T15:43:57;101084.50;;;25.46;100.00
27705;BME280;15109;50.992;6.918;2022-08-01T15:47:18;101091.81;;;25.47;100.00
27705;BME280;15109;50.992;6.918;2022-08-01T15:50:39;101090.41;;;25.44;100.00
27705;BME280;15109;50.992;6.918;2022-08-01T15:54:00;101095.16;;;25.44;100.00
27705;BME280;15109;50.992;6.918;2022-08-01T15:57:23;101090.19;;;25.56;100.00
27705;BME280;15109;50.992;6.918;2022-08-01T16:00:44;101093.84;;;25.77;100.00
27705;BME280;15109;50.992;6.918;2022-08-01T16:04:06;101093.88;;;25.92;100.00
27705;BME280;15109;50.992;6.918;2022-08-01T16:07:27;101090.78;;;26.08;100.00
27705;BME280;15109;50.992;6.918;2022-08-01T16:10:48;101095.53;;;25.72;100.00
27705;BME280;15109;50.992;6.918;2022-08-01T16:14:09;101084.84;;;25.59;100.00
27705;BME280;15109;50.992;6.918;2022-08-01T16:17:30;101079.03;;;25.91;100.00
27705;BME280;15109;50.992;6.918;2022-08-01T16:20:52;101084.34;;;26.08;100.00
27705;BME280;15109;50.992;6.918;2022-08-01T16:24:13;101095.28;;;25.99;100.00
27705;BME280;15109;50.992;6.918;2022-08-01T16:27:34;101093.59;;;26.08;100.00
27705;BME280;15109;50.992;6.918;2022-08-01T16:30:55;101095.25;;;25.74;100.00
27705;BME280;15109;50.992;6.918;2022-08-01T16:34:16;101098.84;;;25.54;100.00
27705;BME280;15109;50.992;6.918;2022-08-01T16:37:37;101092.91;;;25.36;100.00
27705;BME280;15109;50.992;6.918;2022-08-01T16:40:58;101098.13;;;25.12;100.00
27705;BME280;15109;50.992;6.918;2022-08-01T16:44:19;101104.84;;;25.16;100.00
27705;BME280;15109;50.992;6.918;2022-08-01T16:47:40;101098.63;;;24.94;100.00
27705;BME280;15109;50.992;6.918;2022-08-01T16:51:01;101101.66;;;24.87;100.00
27705;BME280;15109;50.992;6.918;2022-08-01T16:54:22;101097.78;;;24.98;100.00
27705;BME280;15109;50.992;6.918;2022-08-01T16:57:43;101100.22;;;24.84;100.00
27705;BME280;15109;50.992;6.918;2022-08-01T17:01:04;101094.78;;;24.63;100.00
27705;BME280;15109;50.992;6.918;2022-08-01T17:04:25;101104.25;;;24.57;100.00
27705;BME280;15109;50.992;6.918;2022-08-01T17:07:47;101105.91;;;24.53;100.00
27705;BME280;15109;50.992;6.918;2022-08-01T17:11:08;101110.44;;;24.59;100.00
27705;BME280;15109;50.992;6.918;2022-08-01T17:14:29;101114.34;;;24.58;100.00
27705;BME280;15109;50.992;6.918;2022-08-01T17:17:51;101111.88;;;24.66;100.00
27705;BME280;15109;50.992;6.918;2022-08-01T17:21:14;101105.75;;;24.74;100.00
27705;BME280;15109;50.992;6.918;2022-08-01T17:24:35;101105.22;;;24.77;100.00
27705;BME280;15109;50.992;6.918;2022-08-01T17:27:56;101108.59;;;24.79;100.00
27705;BME280;15109;50.992;6.918;2022-08-01T17:31:17;101106.34;;;24.76;100.00
27705;BME280;15109;50.992;6.918;2022-08-01T17:34:39;101110.22;;;24.70;100.00
27705;BME280;15109;50.992;6.918;2022-08-01T17:38:00;101114.06;;;24.59;100.00
27705;BME280;15109;50.992;6.918;2022-08-01T17:41:21;101106.44;;;24.50;100.00
27705;BME280;15109;50.992;6.918;2022-08-01T17:44:42;101108.63;;;24.42;100.00
27705;BME280;15109;50.992;6.918;2022-08-01T17:48:04;101102.44;;;24.35;100.00
27705;BME280;15109;50.992;6.918;2022-08-01T17:51:25;101110.22;;;24.33;100.00
27705;BME280;15109;50.992;6.918;2022-08-01T17:54:46;101108.59;;;24.37;100.00
27705;BME280;15109;50.992;6.918;2022-08-01T17:58:08;101107.75;;;24.37;100.00
27705;BME280;15109;50.992;6.918;2022-08-01T18:01:29;101108.22;;;24.24;100.00